Springwood, Indiana
Current Conditions -  °F | °C
As of 3:53 AM on Friday 31 Oct 2014 (Local Time) from KHUF Reporting Station
Scattered Clouds Scattered Clouds  
Wind Chill: 43°   Ceiling: Unl
Heat Index: 43°   Visibility: 8mi
Dew Point: 41°   Wind: 3mph
Humidity: 93%   Direction: 330°NNW
Pressure: 30.04"   Gusts: NA
Location:  39.543°N, 87.3153°W
Report Text: KHUF 310753Z 33003KT 8SM SCT090 06/05 A3004 RMK AO2 SLP173 T00610050
Loading
Personal Weather Stations






























Interactive Weather Map
Tropical Storm Tracking
New forecast layout! Learn more

10-Day Weather Forecast

Advertisements
Track Severe Weather on mobile